Terminal Aerodrome Forecast
Issued by NWS Corpus Christi, TX

Home | Current Version | Previous Version | Text Only | Print | Product List | Glossary On
Versions: 1 2 3 4 5 6 7 8 9 10 11 12
731
FTUS44 KCRP 161131
TAFCRP
TAF
KCRP 161131Z 1612/1712 04007KT P6SM BKN040
      TEMPO 1612/1615 -RA
     FM161500 03008KT P6SM -RA BKN035
     FM161800 03008KT 6SM -RA BR BKN025
     FM162200 34008KT 3SM RA BR OVC007 PROB30 1700/1706 -TSRA
      OVC007CB
     FM170700 34006KT 4SM BR OVC005=

USA.gov is the U.S. government's official web portal to all federal, state and local government web resources and services.